createdAt,value
2019-04-06T00:00:14.040Z,22.39
2019-04-06T00:02:41.732Z,22.42
2019-04-06T00:05:09.249Z,22.41
2019-04-06T00:07:36.907Z,22.39
2019-04-06T00:10:04.568Z,22.38
2019-04-06T00:12:32.225Z,22.36
2019-04-06T00:14:59.791Z,22.36
2019-04-06T00:17:27.188Z,22.32
2019-04-06T00:19:54.501Z,22.34
2019-04-06T00:22:22.187Z,22.33
2019-04-06T00:24:49.838Z,22.33
2019-04-06T00:27:17.099Z,22.27
2019-04-06T00:29:44.213Z,22.24
2019-04-06T00:32:37.122Z,22.24
2019-04-06T00:35:04.479Z,22.29
2019-04-06T00:37:31.726Z,22.28
2019-04-06T00:39:59.036Z,22.28
2019-04-06T00:42:26.692Z,22.30
2019-04-06T00:44:54.058Z,22.26
2019-04-06T00:47:21.203Z,22.26
2019-04-06T00:49:48.605Z,22.23
2019-04-06T00:52:15.729Z,22.22
2019-04-06T00:54:43.250Z,22.22
2019-04-06T00:57:10.375Z,22.22
2019-04-06T00:59:37.563Z,22.19
2019-04-06T01:02:05.531Z,22.18
2019-04-06T01:04:32.793Z,22.17
2019-04-06T01:07:00.242Z,22.15
2019-04-06T01:09:27.643Z,22.19
2019-04-06T01:11:55.187Z,22.18
2019-04-06T01:14:22.233Z,22.15
2019-04-06T01:16:49.560Z,22.15
2019-04-06T01:19:17.537Z,22.13
2019-04-06T01:21:45.315Z,22.09
2019-04-06T01:24:12.680Z,22.10
2019-04-06T01:26:40.286Z,22.10
2019-04-06T01:29:07.947Z,22.12
2019-04-06T01:32:25.234Z,22.11
2019-04-06T01:35:10.854Z,22.11
2019-04-06T01:37:37.896Z,22.03
2019-04-06T01:40:05.214Z,22.01
2019-04-06T01:42:32.258Z,22.03
2019-04-06T01:44:59.452Z,22.03
2019-04-06T01:47:26.501Z,22.06
2019-04-06T01:49:53.546Z,22.04
2019-04-06T01:52:20.601Z,22.01
2019-04-06T01:54:48.144Z,22.03
2019-04-06T01:57:15.481Z,21.98
2019-04-06T01:59:42.902Z,21.98
2019-04-06T02:02:15.838Z,21.93
2019-04-06T02:04:43.430Z,21.93
2019-04-06T02:07:10.629Z,21.88
2019-04-06T02:09:38.720Z,21.85
2019-04-06T02:12:06.383Z,21.90
2019-04-06T02:14:34.189Z,21.84
2019-04-06T02:17:01.239Z,21.84
2019-04-06T02:19:28.277Z,21.83
2019-04-06T02:21:55.322Z,21.85
2019-04-06T02:24:22.637Z,21.88
2019-04-06T02:26:49.668Z,21.85
2019-04-06T02:29:17.373Z,21.89
2019-04-06T02:32:08.149Z,21.83
2019-04-06T02:34:58.028Z,21.85
2019-04-06T02:37:44.343Z,21.82
2019-04-06T02:40:18.396Z,21.79
2019-04-06T02:42:52.911Z,21.79
2019-04-06T02:45:20.349Z,21.75
2019-04-06T02:47:47.489Z,21.76
2019-04-06T02:50:15.330Z,21.74
2019-04-06T02:52:42.839Z,21.80
2019-04-06T02:55:11.795Z,21.78
2019-04-06T02:57:38.890Z,21.77
2019-04-06T03:00:07.016Z,21.75
2019-04-06T03:02:34.357Z,21.75
2019-04-06T03:05:01.702Z,21.78
2019-04-06T03:07:29.674Z,21.76
2019-04-06T03:09:57.032Z,21.73
2019-04-06T03:12:24.090Z,21.75
2019-04-06T03:14:52.252Z,21.71
2019-04-06T03:17:19.604Z,21.70
2019-04-06T03:19:47.270Z,21.67
2019-04-06T03:22:14.927Z,21.68
2019-04-06T03:24:42.281Z,21.67
2019-04-06T03:27:10.451Z,21.69
2019-04-06T03:29:37.658Z,21.68
2019-04-06T03:32:04.777Z,21.64
2019-04-06T03:34:32.810Z,21.68
2019-04-06T03:36:59.880Z,21.69
2019-04-06T03:39:27.542Z,21.71
2019-04-06T03:41:55.114Z,21.70
2019-04-06T03:44:22.441Z,21.65
2019-04-06T03:46:49.510Z,21.64
2019-04-06T03:49:16.533Z,21.69
2019-04-06T03:51:43.784Z,21.64
2019-04-06T03:54:11.763Z,21.65
2019-04-06T03:56:39.103Z,21.65
2019-04-06T03:59:06.215Z,21.59
2019-04-06T04:01:33.247Z,21.58
2019-04-06T04:04:00.543Z,21.57
2019-04-06T04:06:27.840Z,21.32
2019-04-06T04:08:55.684Z,21.54
2019-04-06T04:11:22.726Z,21.53
2019-04-06T04:13:50.389Z,21.51
2019-04-06T04:16:18.047Z,21.52
2019-04-06T04:18:45.822Z,21.54
2019-04-06T04:21:12.948Z,21.54
2019-04-06T04:23:41.883Z,21.55
2019-04-06T04:26:09.022Z,21.52
2019-04-06T04:28:36.038Z,21.52
2019-04-06T04:31:03.126Z,21.57
2019-04-06T04:33:31.056Z,21.55
2019-04-06T04:35:58.227Z,21.56
2019-04-06T04:38:25.988Z,21.54
2019-04-06T04:40:53.322Z,21.53
2019-04-06T04:43:20.382Z,21.50
2019-04-06T04:45:47.492Z,21.51
2019-04-06T04:48:14.585Z,21.52
2019-04-06T04:50:41.901Z,21.52
2019-04-06T04:53:09.271Z,21.54
2019-04-06T04:55:36.318Z,21.52
2019-04-06T04:58:06.368Z,21.48
2019-04-06T05:00:33.567Z,21.49
2019-04-06T05:03:00.598Z,21.51
2019-04-06T05:05:27.804Z,21.53
2019-04-06T05:07:55.408Z,21.49
2019-04-06T05:10:22.819Z,21.50
2019-04-06T05:12:50.284Z,21.51
2019-04-06T05:15:36.503Z,21.55
2019-04-06T05:18:04.049Z,21.54
2019-04-06T05:20:31.973Z,21.52
2019-04-06T05:22:59.840Z,21.51
2019-04-06T05:25:27.211Z,21.51
2019-04-06T05:27:54.533Z,21.53
2019-04-06T05:30:21.553Z,21.51
2019-04-06T05:32:48.554Z,21.53
2019-04-06T05:35:15.577Z,21.57
2019-04-06T05:37:42.593Z,21.59
2019-04-06T05:40:09.782Z,21.60
2019-04-06T05:42:37.774Z,21.61
2019-04-06T05:45:06.081Z,21.60
2019-04-06T05:47:33.688Z,21.62
2019-04-06T05:50:00.754Z,21.66
2019-04-06T05:52:27.761Z,21.65
2019-04-06T05:54:55.040Z,21.66
2019-04-06T05:57:22.697Z,21.69
2019-04-06T05:59:50.255Z,21.69
2019-04-06T06:02:17.653Z,21.73
2019-04-06T06:04:45.477Z,21.70
2019-04-06T06:07:12.637Z,21.72
2019-04-06T06:09:39.957Z,21.72
2019-04-06T06:12:09.336Z,21.80
2019-04-06T06:14:37.338Z,21.82
2019-04-06T06:17:04.597Z,21.84
2019-04-06T06:19:31.750Z,21.85
2019-04-06T06:21:59.521Z,21.92
2019-04-06T06:24:26.940Z,21.96
2019-04-06T06:26:53.995Z,22.00
2019-04-06T06:29:21.266Z,21.95
2019-04-06T06:31:48.302Z,22.01
2019-04-06T06:34:15.327Z,22.06
2019-04-06T06:36:42.532Z,22.09
2019-04-06T06:39:09.543Z,22.11
2019-04-06T06:41:36.574Z,22.14
2019-04-06T06:44:04.050Z,22.15
2019-04-06T06:46:31.137Z,22.15
2019-04-06T06:48:59.061Z,22.21
2019-04-06T06:51:26.293Z,22.22
2019-04-06T06:53:53.345Z,22.19
2019-04-06T06:56:20.714Z,22.21
2019-04-06T06:58:47.753Z,22.24
2019-04-06T07:01:14.985Z,22.21
2019-04-06T07:03:42.541Z,22.23
2019-04-06T07:06:09.590Z,22.29
2019-04-06T07:08:36.988Z,22.30
2019-04-06T07:11:05.566Z,22.33
2019-04-06T07:13:32.602Z,22.39
2019-04-06T07:15:59.611Z,22.45
2019-04-06T07:18:26.620Z,22.46
2019-04-06T07:20:53.766Z,22.49
2019-04-06T07:23:21.504Z,22.51
2019-04-06T07:25:57.334Z,22.53
2019-04-06T07:28:18.053Z,22.58
2019-04-06T07:30:46.288Z,22.59
2019-04-06T07:33:13.305Z,22.62
2019-04-06T07:35:40.331Z,22.64
2019-04-06T07:38:07.414Z,22.65
2019-04-06T07:40:34.598Z,22.68
2019-04-06T07:43:02.175Z,22.69
2019-04-06T07:45:29.182Z,22.71
2019-04-06T07:47:56.185Z,22.73
2019-04-06T07:50:23.179Z,22.76
2019-04-06T07:52:50.202Z,22.79
2019-04-06T07:55:17.335Z,22.83
2019-04-06T07:57:44.835Z,22.87
2019-04-06T08:00:12.061Z,22.92
2019-04-06T08:02:39.630Z,22.94
2019-04-06T08:05:08.364Z,22.96
2019-04-06T08:07:35.590Z,23.00
2019-04-06T08:10:02.958Z,23.02
2019-04-06T08:12:29.976Z,23.05
2019-04-06T08:14:57.533Z,23.08
2019-04-06T08:17:24.669Z,23.10
2019-04-06T08:19:51.925Z,23.13
2019-04-06T08:22:19.835Z,23.15
2019-04-06T08:24:47.101Z,23.21
2019-04-06T08:27:14.753Z,23.22
2019-04-06T08:29:42.006Z,23.22
2019-04-06T08:32:09.356Z,23.25
2019-04-06T08:34:37.024Z,23.30
2019-04-06T08:37:04.497Z,23.32
2019-04-06T08:39:31.827Z,23.34
2019-04-06T08:41:59.844Z,23.39
2019-04-06T08:44:26.929Z,23.41
2019-04-06T08:46:53.932Z,23.46
2019-04-06T08:49:20.945Z,23.48
2019-04-06T08:51:48.321Z,23.48
2019-04-06T08:54:15.598Z,23.51
2019-04-06T08:56:42.906Z,23.53
2019-04-06T08:59:12.170Z,23.56
2019-04-06T09:01:39.416Z,23.58
2019-04-06T09:04:06.514Z,23.59
2019-04-06T09:06:33.585Z,23.58
2019-04-06T09:09:00.980Z,23.61
2019-04-06T09:11:28.718Z,23.63
2019-04-06T09:13:56.029Z,23.66
2019-04-06T09:16:23.676Z,23.68
2019-04-06T09:18:51.124Z,23.69
2019-04-06T09:21:18.640Z,23.74
2019-04-06T09:23:46.261Z,23.76
2019-04-06T09:26:13.402Z,23.77
2019-04-06T09:28:40.575Z,23.80
2019-04-06T09:31:07.720Z,23.84
2019-04-06T09:33:35.479Z,23.84
2019-04-06T09:36:02.692Z,23.88
2019-04-06T09:38:29.835Z,23.93
2019-04-06T09:40:57.385Z,23.95
2019-04-06T09:43:24.849Z,24.10
2019-04-06T09:46:20.739Z,24.20
2019-04-06T09:49:00.296Z,24.35
2019-04-06T09:51:44.865Z,24.42
2019-04-06T09:54:23.933Z,24.50
2019-04-06T09:57:18.199Z,24.60
2019-04-06T09:59:53.857Z,24.57
2019-04-06T10:02:39.516Z,24.64
2019-04-06T10:05:35.682Z,24.78
2019-04-06T10:08:21.425Z,24.88
2019-04-06T10:11:11.524Z,24.84
2019-04-06T10:14:10.517Z,24.89
2019-04-06T10:16:58.460Z,24.88
2019-04-06T10:19:33.404Z,24.79
2019-04-06T10:22:17.747Z,24.72
2019-04-06T10:25:07.728Z,24.70
2019-04-06T10:27:55.256Z,24.69
2019-04-06T10:30:45.170Z,24.61
2019-04-06T10:33:31.850Z,24.52
2019-04-06T10:36:14.264Z,24.43
2019-04-06T10:39:01.168Z,24.45
2019-04-06T10:41:47.992Z,24.43
2019-04-06T10:44:22.207Z,24.39
2019-04-06T10:46:54.678Z,24.37
2019-04-06T10:49:40.248Z,24.38
2019-04-06T10:52:26.997Z,24.46
2019-04-06T10:55:06.628Z,24.47
2019-04-06T10:57:44.108Z,24.50
2019-04-06T11:00:29.438Z,24.62
2019-04-06T11:03:14.904Z,24.73
2019-04-06T11:05:51.712Z,24.80
2019-04-06T11:08:32.295Z,24.82
2019-04-06T11:11:17.929Z,24.84
2019-04-06T11:14:09.102Z,24.88
2019-04-06T11:16:48.309Z,24.95
2019-04-06T11:19:33.679Z,24.98
2019-04-06T11:22:26.459Z,24.98
2019-04-06T11:25:09.240Z,25.08
2019-04-06T11:27:48.388Z,25.25
2019-04-06T11:30:24.665Z,25.28
2019-04-06T11:33:13.967Z,25.31
2019-04-06T11:36:00.699Z,25.36
2019-04-06T11:38:39.141Z,25.47
2019-04-06T11:41:21.389Z,25.49
2019-04-06T11:44:07.324Z,25.45
2019-04-06T11:47:00.278Z,25.37
2019-04-06T11:49:36.209Z,25.23
2019-04-06T11:52:11.926Z,25.21
2019-04-06T11:54:59.370Z,25.12
2019-04-06T11:57:38.481Z,25.08
2019-04-06T12:00:27.546Z,25.04
2019-04-06T12:03:17.287Z,25.17
2019-04-06T12:06:07.580Z,25.42
2019-04-06T12:08:53.080Z,25.58
2019-04-06T12:11:44.072Z,25.69
2019-04-06T12:14:39.815Z,25.64
2019-04-06T12:17:25.261Z,25.45
2019-04-06T12:20:12.782Z,25.50
2019-04-06T12:22:54.802Z,25.53
2019-04-06T12:25:50.513Z,25.55
2019-04-06T12:28:28.901Z,25.53
2019-04-06T12:31:18.969Z,25.41
2019-04-06T12:34:12.677Z,25.40
2019-04-06T12:36:49.139Z,25.38
2019-04-06T12:39:36.547Z,25.35
2019-04-06T12:42:23.282Z,25.32
2019-04-06T12:45:09.248Z,25.32
2019-04-06T12:47:56.289Z,25.38
2019-04-06T12:50:49.581Z,25.36
2019-04-06T12:53:30.426Z,25.35
2019-04-06T12:56:13.760Z,25.31
2019-04-06T12:59:04.114Z,25.26
2019-04-06T13:01:51.331Z,25.27
2019-04-06T13:04:47.467Z,25.30
2019-04-06T13:07:31.403Z,25.34
2019-04-06T13:10:11.993Z,25.35
2019-04-06T13:12:56.206Z,25.44
2019-04-06T13:15:38.142Z,25.50
2019-04-06T13:18:33.738Z,25.66
2019-04-06T13:21:31.123Z,25.73
2019-04-06T13:24:06.050Z,25.76
2019-04-06T13:26:45.406Z,25.85
2019-04-06T13:29:21.311Z,25.96
2019-04-06T13:32:15.081Z,26.01
2019-04-06T13:34:55.059Z,26.03
2019-04-06T13:37:51.432Z,25.96
2019-04-06T13:40:31.056Z,25.92
2019-04-06T13:43:12.937Z,25.96
2019-04-06T13:46:06.042Z,26.00
2019-04-06T13:48:54.363Z,25.96
2019-04-06T13:51:42.752Z,25.92
2019-04-06T13:54:27.909Z,25.91
2019-04-06T13:57:21.404Z,25.91
2019-04-06T14:00:08.761Z,25.83
2019-04-06T14:02:55.238Z,25.82
2019-04-06T14:05:28.466Z,25.62
2019-04-06T14:08:15.323Z,25.59
2019-04-06T14:11:02.286Z,25.53
2019-04-06T14:13:35.663Z,25.50
2019-04-06T14:16:11.451Z,25.54
2019-04-06T14:19:00.952Z,25.52
2019-04-06T14:21:53.443Z,25.48
2019-04-06T14:24:46.450Z,25.40
2019-04-06T14:27:19.647Z,25.41
2019-04-06T14:30:10.218Z,25.38
2019-04-06T14:32:53.004Z,25.33
2019-04-06T14:35:40.584Z,25.27
2019-04-06T14:38:39.871Z,25.24
2019-04-06T14:41:25.338Z,25.25
2019-04-06T14:44:18.066Z,25.29
2019-04-06T14:46:59.553Z,25.35
2019-04-06T14:49:55.430Z,25.37
2019-04-06T14:52:31.387Z,25.41
2019-04-06T14:55:27.760Z,25.49
2019-04-06T14:58:03.939Z,25.53
2019-04-06T15:00:43.042Z,25.52
2019-04-06T15:03:26.228Z,25.58
2019-04-06T15:06:16.291Z,25.63
2019-04-06T15:09:02.289Z,25.65
2019-04-06T15:11:47.830Z,25.68
2019-04-06T15:14:26.640Z,25.71
2019-04-06T15:16:59.209Z,25.72
2019-04-06T15:19:36.706Z,25.76
2019-04-06T15:22:22.409Z,25.77
2019-04-06T15:25:07.122Z,25.75
2019-04-06T15:28:06.419Z,25.76
2019-04-06T15:31:08.496Z,25.73
2019-04-06T15:33:45.002Z,25.68
2019-04-06T15:36:38.519Z,25.55
2019-04-06T15:39:25.017Z,25.53
2019-04-06T15:42:11.137Z,25.47
2019-04-06T15:44:54.137Z,25.36
2019-04-06T15:47:34.809Z,25.35
2019-04-06T15:50:17.651Z,25.31
2019-04-06T15:53:13.874Z,25.26
2019-04-06T15:56:01.460Z,25.19
2019-04-06T15:58:51.565Z,25.11
2019-04-06T16:02:00.176Z,25.05
2019-04-06T16:04:41.361Z,24.95
2019-04-06T16:07:33.546Z,24.87
2019-04-06T16:10:21.456Z,24.82
2019-04-06T16:13:10.524Z,24.78
2019-04-06T16:15:45.302Z,24.75
2019-04-06T16:18:50.809Z,24.71
2019-04-06T16:21:29.411Z,24.70
2019-04-06T16:24:13.224Z,24.68
2019-04-06T16:26:59.009Z,24.67
2019-04-06T16:29:35.500Z,24.65
2019-04-06T16:32:33.259Z,24.63
2019-04-06T16:35:30.951Z,24.64
2019-04-06T16:38:10.163Z,24.65
2019-04-06T16:40:49.682Z,24.63
2019-04-06T16:43:32.376Z,24.63
2019-04-06T16:46:25.347Z,24.63
2019-04-06T16:49:11.044Z,24.62
2019-04-06T16:51:48.247Z,24.60
2019-04-06T16:54:27.237Z,24.59
2019-04-06T16:57:00.953Z,24.60
2019-04-06T16:59:45.198Z,24.61
2019-04-06T17:02:26.005Z,24.61
2019-04-06T17:05:14.745Z,24.58
2019-04-06T17:07:48.836Z,24.58
2019-04-06T17:10:26.882Z,24.55
2019-04-06T17:13:02.823Z,24.54
2019-04-06T17:15:37.625Z,24.52
2019-04-06T17:18:12.270Z,24.50
2019-04-06T17:21:00.036Z,24.48
2019-04-06T17:23:59.625Z,24.46
2019-04-06T17:26:38.872Z,24.42
2019-04-06T17:29:29.079Z,24.38
2019-04-06T17:32:15.408Z,24.35
2019-04-06T17:35:01.381Z,24.32
2019-04-06T17:37:34.605Z,24.30
2019-04-06T17:40:14.130Z,24.24
2019-04-06T17:42:47.675Z,24.23
2019-04-06T17:45:36.088Z,24.20
2019-04-06T17:48:26.164Z,24.19
2019-04-06T17:51:33.030Z,24.15
2019-04-06T17:54:12.288Z,24.13
2019-04-06T17:57:14.648Z,24.09
2019-04-06T18:00:01.904Z,24.07
2019-04-06T18:02:48.766Z,24.04
2019-04-06T18:05:28.266Z,24.00
2019-04-06T18:08:06.941Z,23.99
2019-04-06T18:10:53.482Z,23.95
2019-04-06T18:13:41.215Z,23.94
2019-04-06T18:16:09.001Z,23.90
2019-04-06T18:18:36.415Z,23.87
2019-04-06T18:21:03.867Z,23.87
2019-04-06T18:23:31.265Z,23.85
2019-04-06T18:25:58.335Z,23.84
2019-04-06T18:28:25.384Z,23.82
2019-04-06T18:31:02.694Z,23.81
2019-04-06T18:33:29.977Z,23.81
2019-04-06T18:35:57.358Z,23.80
2019-04-06T18:38:36.544Z,23.79
2019-04-06T18:41:04.122Z,23.77
2019-04-06T18:43:31.906Z,23.76
2019-04-06T18:45:59.398Z,23.73
2019-04-06T18:48:26.427Z,23.72
2019-04-06T18:50:53.443Z,23.71
2019-04-06T18:53:20.813Z,23.67
2019-04-06T18:55:48.203Z,23.66
2019-04-06T18:58:15.562Z,23.65
2019-04-06T19:00:43.558Z,23.64
2019-04-06T19:03:17.407Z,23.62
2019-04-06T19:05:40.559Z,23.59
2019-04-06T19:08:08.421Z,23.59
2019-04-06T19:10:36.447Z,23.57
2019-04-06T19:13:04.412Z,23.59
2019-04-06T19:15:32.561Z,23.57
2019-04-06T19:17:59.924Z,23.58
2019-04-06T19:20:26.950Z,23.56
2019-04-06T19:22:54.591Z,23.55
2019-04-06T19:25:21.877Z,23.55
2019-04-06T19:27:49.702Z,23.52
2019-04-06T19:30:16.842Z,23.51
2019-04-06T19:32:43.955Z,23.49
2019-04-06T19:35:11.047Z,23.48
2019-04-06T19:37:38.538Z,23.48
2019-04-06T19:40:06.023Z,23.47
2019-04-06T19:42:33.553Z,23.47
2019-04-06T19:45:00.562Z,23.44
2019-04-06T19:47:27.940Z,23.43
2019-04-06T19:49:55.209Z,23.44
2019-04-06T19:52:22.224Z,23.41
2019-04-06T19:54:50.126Z,23.40
2019-04-06T19:57:18.359Z,23.36
2019-04-06T19:59:45.770Z,23.37
2019-04-06T20:02:13.100Z,23.35
2019-04-06T20:04:40.994Z,23.35
2019-04-06T20:07:10.732Z,23.34
2019-04-06T20:09:37.292Z,23.32
2019-04-06T20:12:07.479Z,23.28
2019-04-06T20:14:33.287Z,23.28
2019-04-06T20:17:00.371Z,23.29
2019-04-06T20:19:27.338Z,23.27
2019-04-06T20:21:54.339Z,23.24
2019-04-06T20:24:21.775Z,23.23
2019-04-06T20:26:49.396Z,23.22
2019-04-06T20:29:17.394Z,23.24
2019-04-06T20:31:44.704Z,23.22
2019-04-06T20:34:12.086Z,23.19
2019-04-06T20:36:39.622Z,23.18
2019-04-06T20:39:07.848Z,23.19
2019-04-06T20:41:34.856Z,23.17
2019-04-06T20:44:01.868Z,23.15
2019-04-06T20:46:29.762Z,23.13
2019-04-06T20:48:56.960Z,23.12
2019-04-06T20:51:23.969Z,23.13
2019-04-06T20:53:51.347Z,23.12
2019-04-06T20:56:18.362Z,23.13
2019-04-06T20:58:45.953Z,23.09
2019-04-06T21:01:13.076Z,23.07
2019-04-06T21:03:40.462Z,23.07
2019-04-06T21:06:07.885Z,23.03
2019-04-06T21:08:35.399Z,23.03
2019-04-06T21:11:03.575Z,23.03
2019-04-06T21:13:30.670Z,23.02
2019-04-06T21:15:57.796Z,23.01
2019-04-06T21:18:25.304Z,22.99
2019-04-06T21:20:53.328Z,23.02
2019-04-06T21:23:20.718Z,22.96
2019-04-06T21:25:48.154Z,22.98
2019-04-06T21:28:15.523Z,22.96
2019-04-06T21:30:43.217Z,22.95
2019-04-06T21:33:10.699Z,22.96
2019-04-06T21:35:38.101Z,22.94
2019-04-06T21:38:05.745Z,22.95
2019-04-06T21:40:33.067Z,22.94
2019-04-06T21:43:01.008Z,22.92
2019-04-06T21:45:29.143Z,22.92
2019-04-06T21:47:56.192Z,22.93
2019-04-06T21:50:23.225Z,22.93
2019-04-06T21:52:50.838Z,22.90
2019-04-06T21:55:17.988Z,22.88
2019-04-06T21:57:45.781Z,22.87
2019-04-06T22:00:18.384Z,22.85
2019-04-06T22:02:45.937Z,22.86
2019-04-06T22:05:13.740Z,22.85
2019-04-06T22:07:48.633Z,22.86
2019-04-06T22:10:10.656Z,22.85
2019-04-06T22:12:37.841Z,22.81
2019-04-06T22:15:05.910Z,22.85
2019-04-06T22:17:34.839Z,22.84
2019-04-06T22:20:02.145Z,22.81
2019-04-06T22:22:29.587Z,22.82
2019-04-06T22:24:57.612Z,22.80
2019-04-06T22:27:25.076Z,22.81
2019-04-06T22:29:52.263Z,22.77
2019-04-06T22:32:20.838Z,22.79
2019-04-06T22:34:48.698Z,22.75
2019-04-06T22:37:16.273Z,22.74
2019-04-06T22:39:43.680Z,22.73
2019-04-06T22:42:11.476Z,22.73
2019-04-06T22:44:38.687Z,22.69
2019-04-06T22:47:05.943Z,22.70
2019-04-06T22:49:32.987Z,22.68
2019-04-06T22:52:00.018Z,22.70
2019-04-06T22:54:27.744Z,22.70
2019-04-06T22:56:55.812Z,22.66
2019-04-06T22:59:24.339Z,22.65
2019-04-06T23:01:51.775Z,22.66
2019-04-06T23:04:32.494Z,22.61
2019-04-06T23:07:02.951Z,22.65
2019-04-06T23:09:30.877Z,22.62
2019-04-06T23:11:58.765Z,22.63
2019-04-06T23:14:27.294Z,22.58
2019-04-06T23:16:54.480Z,22.58
2019-04-06T23:19:21.528Z,22.56
2019-04-06T23:21:48.862Z,22.54
2019-04-06T23:24:16.065Z,22.55
2019-04-06T23:26:43.409Z,22.53
2019-04-06T23:29:11.190Z,22.52
2019-04-06T23:31:38.383Z,22.54
2019-04-06T23:34:05.446Z,22.54
2019-04-06T23:36:33.034Z,22.50
2019-04-06T23:39:00.185Z,22.47
2019-04-06T23:41:27.684Z,22.53
2019-04-06T23:43:55.003Z,22.49
2019-04-06T23:46:22.364Z,22.46
2019-04-06T23:48:49.901Z,22.47
2019-04-06T23:51:17.436Z,22.46
2019-04-06T23:53:44.881Z,22.46
2019-04-06T23:56:12.776Z,22.46
2019-04-06T23:58:40.134Z,22.47
